Pagrindinis puslapis
METAR-TAF:

METAR-TAF

Oro uostai :

Naksas, Graikija

platuma: 37-04-47N, ilguma: 025-22-01E, Aukštis: 3 m

Dabartinis oras

Ataskaita buvo paskelbta 1 valandą ir 12 minutes, ne 07:50 UTC
Vėjas 13 kt iš Šiaurės/Šiaurės Rytų
Temperatūra 17°C
Drėgmė 63%
Slėgis 1020 hPa
Matomumas 10 km arba daugiau
Išsisklaidę debesys ne aukštis 2500 ft

METAR: LGNX 270750Z 02013KT 9999 SCT025 17/10 Q1020

Laikas: 12:02 (09:02 UTC)


TAF: trūkstamas

Orai ataskaitas ir orų prognozės (METAR, TAF).

turimą stotys yra geltonos ir raudonos taškus žemėlapyje.

Perkelti pele per norėdami pamatyti stoties vardą.

Tada spustelėkite, norėdami matyti oro stebėjimo ir prognozės.

Norėdami pakeisti žemėlapį: spustelėkite ant žalios mygtukų su juodo kryžiaus žemyn,; žalią mygtuką su brūkšneliu, jei norite nutolinti; arba žalių rodyklių gretimoms žemėlapius.


METAR-TAF: